• Join FlightAware (Why Join?)
  • Login
  • US Flag 
01:58AM EDT


 

Airport Tracker/Info


-or-


 

Live Flight TrackerFlight Track Log ✈ SWA279 ✈ 26-Apr-2013 ✈ KMHT - KDEN

Flight Track Log - Related Links

Times and Time Zones

All times are in EDT time to prevent confusion due to time zone crossing. See the SWA279 flight status page for this flight to view local times or setup timezone preferences in your user account.

Time Position Orientation Groundspeed Altitude Reporting Facility
EDT Latitude Longitude Course Direction KTS MPH feet Rate Location/Type
07:10AM 42.9500 -71.4333 274° West 167 192 1,300  Level KA90
07:12AM 43.0333 -71.5000 330° Northwest 281 323 5,100 3,360 Climbing KA90
07:12AM 43.0833 -71.5167 346° North 267 307 8,400 3,060 Climbing KA90
07:13AM 43.1161 -71.5697 310° West 296 341 10,000 2,340 Climbing Boston Center
07:14AM 43.1275 -71.6919 277° West 250 288 12,900 2,940 Climbing Boston Center
07:15AM 43.1300 -71.8000 272° West 299 344 15,900 2,820 Climbing Boston Center
07:16AM 42.9537 -72.2817 274° West  Level FlightAware Approximate
07:16AM 43.1328 -71.9053 272° West 317 365 18,600  Level Boston Center
07:17AM 43.1375 -72.0447 273° West 322 371 21,300 2,580 Climbing Boston Center
07:18AM 43.1419 -72.1669 273° West 347 399 23,800 2,400 Climbing Boston Center
07:19AM 43.1444 -72.3292 271° West 353 406 26,100 1,860 Climbing Boston Center
07:20AM 43.1486 -72.4772 272° West 369 425 27,600 1,680 Climbing Boston Center
07:21AM 43.1506 -72.6592 271° West 393 452 29,800 1,620 Climbing Boston Center
07:22AM 43.1542 -72.8186 272° West 411 473 31,200 1,440 Climbing Boston Center
07:23AM 43.1556 -72.9753 271° West 416 479 32,700 1,560 Climbing Boston Center
07:24AM 43.1589 -73.1344 272° West 421 484 34,400 1,560 Climbing Boston Center
07:25AM 43.1619 -73.2939 272° West 421 484 35,900 1,500 Climbing Boston Center
07:26AM 43.1589 -73.4250 268° West 407 468 37,400 1,020 Climbing Boston Center
07:27AM 43.1636 -73.5786 272° West 402 463 38,000 300 Climbing Boston Center
07:28AM 43.1639 -73.7553 270° West 407 468 38,000  Level Boston Center
07:29AM 43.1642 -73.9144 270° West 417 480 38,000  Level Boston Center
07:30AM 43.1661 -74.0742 271° West 422 486 38,000  Level Boston Center
07:31AM 43.1681 -74.2278 271° West 417 480 38,000  Level Boston Center
07:32AM 43.1675 -74.3786 270° West 412 474 38,000  Level Boston Center
07:33AM 43.1689 -74.5325 271° West 407 468 38,000  Level Boston Center
07:34AM 43.1703 -74.6864 271° West 407 468 38,000  Level Boston Center
07:35AM 43.1692 -74.8428 269° West 407 468 38,000  Level Boston Center
07:36AM 43.1678 -74.9964 269° West 407 468 38,000  Level Boston Center
07:38AM 43.1664 -75.1531 269° West 407 468 38,000  Level Boston Center
07:39AM 43.1664 -75.3239 270° West 407 468 38,000  Level Boston Center
07:40AM 43.1664 -75.4806 270° West 407 468 38,000  Level Boston Center
07:41AM 43.1672 -75.6058 271° West 407 468 38,000  Level Boston Center
07:42AM 43.1661 -75.7936 270° West 407 468 38,000  Level Boston Center
07:44AM 43.1606 -76.1369 269° West 408 470 38,000  Level Cleveland Center
07:45AM 43.1369 -76.2839 258° West 408 470 38,000  Level Cleveland Center
07:46AM 43.0900 -76.4264 246° West 403 464 38,000  Level Cleveland Center
07:47AM 43.0450 -76.5717 247° West 413 475 38,000  Level Cleveland Center
07:48AM 42.9981 -76.7167 246° West 418 481 38,000  Level Cleveland Center
07:49AM 42.9525 -76.8583 246° West 418 481 38,000  Level Cleveland Center
07:50AM 42.9031 -77.0089 246° West 429 494 38,000  Level Cleveland Center
07:51AM 42.8556 -77.1561 246° West 429 494 38,000  Level Cleveland Center
07:52AM 42.8097 -77.3000 247° West 429 494 38,000  Level Cleveland Center
07:53AM 42.7594 -77.4469 245° Southwest 429 494 38,000  Level Cleveland Center
07:54AM 42.7208 -77.5647 246° West 429 494 38,000  Level Cleveland Center
07:55AM 42.6647 -77.7342 246° West 429 494 38,000  Level Cleveland Center
07:56AM 42.6219 -77.8658 246° West 429 494 38,000  Level Cleveland Center
07:57AM 42.5731 -78.0033 244° Southwest 424 488 38,000  Level Cleveland Center
07:58AM 42.5261 -78.1461 246° West 424 488 38,000  Level Cleveland Center
07:59AM 42.4792 -78.2886 246° West 424 488 38,000  Level Cleveland Center
08:00AM 42.4297 -78.4283 244° Southwest 424 488 38,000  Level Cleveland Center
08:01AM 42.3822 -78.5678 245° Southwest 424 488 38,000  Level Cleveland Center
08:02AM 42.3344 -78.7069 245° Southwest 419 482 38,000  Level Cleveland Center
08:03AM 42.2867 -78.8458 245° Southwest 414 476 38,000  Level Cleveland Center
08:04AM 42.2325 -78.9986 244° Southwest 414 476 38,000  Level Cleveland Center
08:05AM 42.1906 -79.1342 247° West 409 471 38,000  Level Cleveland Center
08:06AM 42.1861 -79.2803 268° West 385 443 38,000  Level Cleveland Center
08:07AM 42.1875 -79.4258 271° West 392 451 38,000  Level Cleveland Center
08:08AM 42.1869 -79.5717 270° West 392 451 38,000  Level Cleveland Center
08:09AM 42.1881 -79.7144 271° West 387 445 38,000  Level Cleveland Center
08:10AM 42.1869 -79.8603 269° West 387 445 38,000  Level Cleveland Center
08:11AM 42.1856 -79.9892 269° West 387 445 38,000  Level Cleveland Center
08:12AM 42.1883 -80.1347 272° West 381 438 38,000  Level Cleveland Center
08:13AM 42.1867 -80.2778 269° West 386 444 38,000  Level Cleveland Center
08:14AM 42.1850 -80.4375 269° West 386 444 38,000  Level Cleveland Center
08:15AM 42.1831 -80.5858 269° West 386 444 38,000  Level Cleveland Center
08:16AM 42.1828 -80.7317 270° West 386 444 38,000  Level Cleveland Center
08:17AM 42.1825 -80.8803 270° West 391 450 38,000  Level Cleveland Center
08:18AM 42.1800 -81.0231 269° West 386 444 38,000  Level Cleveland Center
08:19AM 42.1772 -81.1658 269° West 386 444 38,000  Level Cleveland Center
08:20AM 42.1767 -81.3061 270° West 381 438 38,000  Level Cleveland Center
08:21AM 42.1733 -81.4517 268° West 386 444 38,000  Level Cleveland Center
08:22AM 42.1722 -81.5917 269° West 381 438 38,000  Level Cleveland Center
08:23AM 42.1711 -81.7317 269° West 381 438 38,000  Level Cleveland Center
08:24AM 42.1675 -81.8661 268° West 381 438 38,000  Level Cleveland Center
08:25AM 42.1636 -82.0061 268° West 376 433 38,000  Level Cleveland Center
08:26AM 42.1619 -82.1433 269° West 376 433 38,000  Level Cleveland Center
08:27AM 42.1581 -82.2806 268° West 370 426 38,000  Level Cleveland Center
08:28AM 42.1558 -82.4206 269° West 370 426 38,000  Level Cleveland Center
08:29AM 42.1533 -82.5606 269° West 370 426 38,000  Level Cleveland Center
08:30AM 42.1425 -82.7058 264° West 375 432 38,000  Level Cleveland Center
08:31AM 42.1461 -82.8461 272° West 380 437 38,000  Level Cleveland Center
08:32AM 42.1411 -82.9886 267° West 385 443 38,000  Level Cleveland Center
08:33AM 42.1361 -83.1258 267° West 385 443 38,000  Level Cleveland Center
08:34AM 42.1328 -83.2656 268° West 380 437 38,000  Level Cleveland Center
08:35AM 42.1275 -83.4053 267° West 380 437 38,000  Level Cleveland Center
08:36AM 42.1219 -83.5422 267° West 380 437 38,000  Level Cleveland Center
08:37AM 42.1186 -83.6681 268° West 374 430 38,000  Level Cleveland Center
08:38AM 42.1150 -83.8022 268° West 374 430 38,000  Level Cleveland Center
08:39AM 42.1111 -83.9394 268° West 374 430 38,000  Level Cleveland Center
08:41AM 42.1036 -84.1953 268° West 367 422 38,000  Level Chicago Center
08:42AM 42.0969 -84.3603 267° West 368 423 38,000  Level Chicago Center
08:43AM 42.0908 -84.4972 267° West 368 423 38,000  Level Chicago Center
08:44AM 42.0853 -84.6356 267° West 370 426 38,000  Level Chicago Center
08:45AM 42.0792 -84.7739 267° West 371 427 38,000  Level Chicago Center
08:46AM 42.0733 -84.9111 267° West 368 423 38,000  Level Chicago Center
08:47AM 42.0678 -85.0481 267° West 368 423 38,000  Level Chicago Center
08:48AM 42.0608 -85.1864 266° West 370 426 38,000  Level Chicago Center
08:49AM 42.0533 -85.3494 267° West 365 420 38,000  Level Chicago Center
08:50AM 42.0461 -85.4858 266° West 366 421 38,000  Level Chicago Center
08:51AM 42.0392 -85.6242 266° West 369 425 38,000  Level Chicago Center
08:52AM 42.0322 -85.7614 266° West 369 425 38,000  Level Chicago Center
08:53AM 42.0247 -85.8986 266° West 367 422 38,000  Level Chicago Center
08:54AM 42.0169 -86.0481 266° West 372 428 38,000  Level Chicago Center
08:55AM 42.0097 -86.1856 266° West 371 427 38,000  Level Chicago Center
08:56AM 42.0011 -86.3239 265° West 372 428 38,000  Level Chicago Center
08:57AM 41.9936 -86.4625 266° West 373 429 38,000  Level Chicago Center
08:58AM 41.9858 -86.5992 266° West 370 426 38,000  Level Chicago Center
08:59AM 41.9775 -86.7578 266° West 366 421 38,000  Level Chicago Center
09:00AM 41.9683 -86.8925 265° West 363 418 38,000  Level Chicago Center
09:01AM 41.9600 -87.0267 265° West 363 418 38,000  Level Chicago Center
09:02AM 41.9581 -87.1597 269° West 360 414 38,000  Level Chicago Center
09:03AM 41.9542 -87.2928 268° West 359 413 38,000  Level Chicago Center
09:04AM 41.9472 -87.4519 267° West 358 412 38,000  Level Chicago Center
09:05AM 41.9439 -87.5856 268° West 362 417 38,000  Level Chicago Center
09:06AM 41.9386 -87.7194 267° West 363 418 38,000  Level Chicago Center
09:07AM 41.9339 -87.8542 267° West 364 419 38,000  Level Chicago Center
09:08AM 41.9286 -87.9889 267° West 365 420 38,000  Level Chicago Center
09:09AM 41.9225 -88.1486 267° West 361 415 38,000  Level Chicago Center
09:10AM 41.9175 -88.2814 267° West 360 414 38,000  Level Chicago Center
09:11AM 41.9117 -88.4144 267° West 361 415 38,000  Level Chicago Center
09:13AM 41.9067 -88.5503 267° West 367 422 38,000  Level Chicago Center
09:14AM 41.9006 -88.6828 266° West 362 417 38,000  Level Chicago Center
09:15AM 41.8939 -88.8458 267° West 368 423 38,000  Level Chicago Center
09:16AM 41.8875 -88.9794 266° West 363 418 38,000  Level Chicago Center
09:17AM 41.8808 -89.1139 266° West 365 420 38,000  Level Chicago Center
09:18AM 41.8753 -89.2503 267° West 369 425 38,000  Level Chicago Center
09:19AM 41.8689 -89.3839 266° West 362 417 38,000  Level Chicago Center
09:20AM 41.8617 -89.5183 266° West 362 417 38,000  Level Chicago Center
09:21AM 41.8536 -89.6775 266° West 357 411 38,000  Level Chicago Center
09:22AM 41.8464 -89.8103 266° West 359 413 38,000  Level Chicago Center
09:23AM 41.8411 -89.9472 267° West 358 412 38,000  Level Chicago Center
09:24AM 41.8336 -90.0800 266° West 359 413 38,000 240 Level Chicago Center
09:25AM 41.8261 -90.2119 266° West 358 412 38,600 780 Climbing Chicago Center
09:26AM 41.8181 -90.3444 265° West 359 413 39,600 660 Climbing Chicago Center
09:27AM 41.8119 -90.4758 266° West 356 410 40,000 180 Climbing Chicago Center
09:28AM 41.8000 -90.6389 264° West 367 422 40,000  Level Chicago Center
09:29AM 41.7919 -90.7756 266° West 370 426 40,000  Level Chicago Center
09:30AM 41.7831 -90.9114 265° West 368 423 40,000  Level Chicago Center
09:31AM 41.7753 -91.0431 266° West 361 415 40,000  Level Chicago Center
09:32AM 41.7656 -91.1764 264° West 361 415 40,000  Level Chicago Center
09:33AM 41.7572 -91.3103 265° West 364 419 40,000  Level Chicago Center
09:34AM 41.7469 -91.4683 265° West 358 412 40,000  Level Chicago Center
09:35AM 41.7378 -91.5994 265° West 355 409 40,000  Level Chicago Center
09:36AM 41.7289 -91.7317 265° West 358 412 40,000  Level Chicago Center
09:37AM 41.7186 -91.8642 264° West 360 414 40,000  Level Chicago Center
09:38AM 41.7092 -91.9989 265° West 363 418 40,000  Level Chicago Center
09:39AM 41.6994 -92.1344 265° West 368 423 40,000  Level Chicago Center
09:40AM 41.6875 -92.2939 264° West 363 418 40,000  Level Chicago Center
09:41AM 41.6775 -92.4306 264° West 369 425 40,000  Level Chicago Center
09:42AM 41.6661 -92.5669 264° West 371 427 40,000  Level Chicago Center
09:43AM 41.6572 -92.6914 265° West 374 430 40,000  Level Minneapolis Center
09:44AM 41.6461 -92.8275 264° West 372 428 40,000  Level Minneapolis Center
09:45AM 41.6350 -92.9644 264° West 374 430 40,000  Level Minneapolis Center
09:46AM 41.6239 -93.1000 264° West 372 428 40,000  Level Minneapolis Center
09:47AM 41.6128 -93.2342 264° West 369 425 40,000  Level Minneapolis Center
09:48AM 41.5989 -93.3969 264° West 371 427 40,000  Level Minneapolis Center
09:50AM 41.5878 -93.5303 264° West 367 422 40,000  Level Minneapolis Center
09:51AM 41.5747 -93.6897 264° West 364 419 40,000  Level Minneapolis Center
09:52AM 41.5636 -93.8264 264° West 370 426 40,000  Level Minneapolis Center
09:53AM 41.5503 -93.9636 263° West 374 430 40,000  Level Minneapolis Center
09:54AM 41.5389 -94.1006 264° West 375 432 40,000  Level Minneapolis Center
09:55AM 41.5217 -94.2633 262° West 384 442 40,000  Level Minneapolis Center
09:56AM 41.5086 -94.4017 263° West 378 435 40,000  Level Minneapolis Center
09:57AM 41.4958 -94.5428 263° West 382 440 40,000  Level Minneapolis Center
09:58AM 41.4817 -94.6828 262° West 381 438 40,000  Level Minneapolis Center
09:59AM 41.4675 -94.8211 262° West 379 436 40,000  Level Minneapolis Center
10:00AM 41.4544 -94.9864 264° West 375 432 40,000  Level Minneapolis Center
10:01AM 41.4381 -95.1475 262° West 369 425 40,000  Level Minneapolis Center
10:02AM 41.4242 -95.2833 262° West 370 426 40,000  Level Minneapolis Center
10:03AM 41.4092 -95.4206 262° West 373 429 40,000  Level Minneapolis Center
10:04AM 41.3944 -95.5575 262° West 373 429 40,000  Level Minneapolis Center
10:05AM 41.3800 -95.7175 263° West 376 433 40,000  Level Minneapolis Center
10:06AM 41.3636 -95.8564 261° West 380 437 40,000  Level Minneapolis Center
10:07AM 41.3492 -95.9956 262° West 379 436 40,000  Level Minneapolis Center
10:09AM 41.3322 -96.1636 262° West 383 441 40,000  Level Minneapolis Center
10:10AM 41.3153 -96.3042 261° West 386 444 40,000  Level Minneapolis Center
10:11AM 41.3008 -96.4375 262° West 387 445 40,000  Level Minneapolis Center
10:12AM 41.2778 -96.6356 261° West 387 445 40,000  Level Minneapolis Center
10:13AM 41.2619 -96.7789 262° West 391 450 40,000  Level Minneapolis Center
10:14AM 41.2450 -96.9208 261° West 391 450 40,000  Level Minneapolis Center
10:15AM 41.2281 -97.0622 261° West 389 448 40,000  Level Minneapolis Center
10:16AM 41.2117 -97.2025 261° West 387 445 40,000  Level Minneapolis Center
10:17AM 41.1944 -97.3422 261° West 385 443 40,000  Level Minneapolis Center
10:18AM 41.1764 -97.4903 261° West 381 438 40,000  Level Minneapolis Center
10:19AM 41.1597 -97.6311 261° West 384 442 40,000  Level Minneapolis Center
10:20AM 41.1417 -97.7703 260° West 382 440 40,000  Level Minneapolis Center
10:21AM 41.1214 -97.9400 261° West 386 444 40,000  Level Minneapolis Center
10:22AM 41.1033 -98.0833 261° West 391 450 40,000  Level Minneapolis Center
10:23AM 41.0850 -98.2275 260° West 395 455 40,000  Level Minneapolis Center
10:24AM 41.0661 -98.3706 260° West 394 453 40,000  Level Minneapolis Center
10:25AM 41.0456 -98.5303 260° West 395 455 40,000  Level Minneapolis Center
10:26AM 41.0267 -98.6744 260° West 397 457 40,000  Level Minneapolis Center
10:27AM 41.0061 -98.8192 259° West 399 459 40,000  Level Minneapolis Center
10:28AM 40.9864 -98.9633 260° West 400 460 40,000  Level Minneapolis Center
10:29AM 40.9672 -99.1069 260° West 398 458 40,000  Level Minneapolis Center
10:30AM 40.9442 -99.2736 260° West 395 455 40,000  Level Minneapolis Center
10:31AM 40.9356 -99.3311 259° West 395 455 40,000  Level Denver Center
10:32AM 40.9161 -99.4725 260° West 393 452 40,000  Level Denver Center
10:33AM 40.8958 -99.6150 259° West 394 453 40,000  Level Denver Center
10:34AM 40.8744 -99.7575 259° West 394 453 40,000  Level Denver Center
10:35AM 40.8522 -99.9131 259° West 397 457 40,000  Level Denver Center
10:36AM 40.8314 -100.0503 259° West 399 459 40,000  Level Denver Center
10:37AM 40.8067 -100.2119 259° West 401 461 40,000  Level Denver Center
10:38AM 40.7869 -100.3511 259° West 402 463 40,000  Level Denver Center
10:39AM 40.7619 -100.5128 259° West 401 461 40,000  Level Denver Center
10:40AM 40.7397 -100.6528 258° West 402 463 40,000  Level Denver Center
10:41AM 40.7172 -100.7969 258° West 408 470 40,000  Level Denver Center
10:42AM 40.6919 -100.9617 259° West 407 468 40,000  Level Denver Center
10:43AM 40.6700 -101.1014 258° West 406 467 40,000  Level Denver Center
10:44AM 40.6444 -101.2633 258° West 404 465 40,000  Level Denver Center
10:45AM 40.6219 -101.4022 258° West 406 467 40,000  Level Denver Center
10:46AM 40.5994 -101.5394 258° West 403 464 40,000  Level Denver Center
10:47AM 40.5736 -101.7006 258° West 401 461 40,000  Level Denver Center
10:48AM 40.5511 -101.8394 258° West 406 467 40,000  Level Denver Center
10:49AM 40.5253 -102.0000 258° West 403 464 40,000  Level Denver Center
10:50AM 40.5014 -102.1381 257° West 405 466 40,000  Level Denver Center
10:51AM 40.4744 -102.2969 257° West 400 460 40,000 -300 Level Denver Center
10:53AM 40.4519 -102.4325 258° West 398 458 39,400 -840 Descending Denver Center
10:54AM 40.4244 -102.5906 257° West 400 460 38,300 -960 Descending Denver Center
10:55AM 40.4014 -102.7261 257° West 408 470 37,500 -1,140 Descending Denver Center
10:56AM 40.3750 -102.8750 257° West 414 476 36,000 -3,000 Descending Denver Center
10:57AM 40.3439 -103.0494 257° West 419 482 31,300 -5,160 Descending Denver Center
10:58AM 40.3164 -103.2083 257° West 444 511 25,400 -4,020 Descending Denver Center
10:59AM 40.2894 -103.3650 257° West 439 505 23,100 -2,040 Descending Denver Center
11:00AM 40.2642 -103.5042 257° West 394 453 21,300 -1,800 Descending Denver Center
11:01AM 40.2403 -103.6336 256° West 367 422 19,500 -1,800 Descending Denver Center
11:02AM 40.2150 -103.7703 256° West 370 426 17,700 -1,860 Descending Denver Center
11:03AM 40.1825 -103.9000 252° West 353 406 15,700 -1,980 Descending Denver Center
11:04AM 40.1453 -104.0144 247° West 346 398 13,700 -1,380 Descending Denver Center
11:05AM 40.0883 -104.1033 230° Southwest 332 382 12,900 -480 Descending Denver Center
11:06AM 40.0042 -104.1469 202° Southwest 294 338 12,800 -720 Descending Denver Center
11:07AM 39.9581 -104.2097 226° Southwest 263 303 11,500 -1,380 Descending Denver Center
11:08AM 39.9328 -104.3011 250° West 250 288 10,000 -1,380 Descending Denver Center
11:09AM 39.9094 -104.3864 250° West 251 289 8,700 -1,440 Descending Denver Center
11:10AM 39.9000 -104.4500 259° West 251 289 7,600 -1,260 Descending Denver TRACON
11:11AM 39.8833 -104.5167 252° West 212 244 6,600 -900 Descending Denver TRACON
11:12AM 39.8833 -104.5833 270° West 150 173 5,900 -540 Descending Denver TRACON
11:13AM 39.8772 -104.6442 263° West 117 135 5,300 -420 Descending Denver Center
11:15AM 39.8617 -104.6732 180° South  Level Estimated
11:22AM 39.8617 -104.6732 North  Level Estimated
11:23AM 39.8617 -104.6732 North  Level Estimated